createdAt,value
2018-02-27T00:00:41.117Z,6.60
2018-02-27T00:03:08.521Z,5.97
2018-02-27T00:05:35.888Z,5.10
2018-02-27T00:08:03.386Z,5.97
2018-02-27T00:10:30.765Z,5.93
2018-02-27T00:12:58.158Z,5.67
2018-02-27T00:15:25.514Z,5.70
2018-02-27T00:17:52.880Z,5.83
2018-02-27T00:20:20.270Z,6.03
2018-02-27T00:22:47.685Z,6.13
2018-02-27T00:25:15.093Z,5.97
2018-02-27T00:27:42.463Z,5.93
2018-02-27T00:30:09.845Z,6.53
2018-02-27T00:32:37.194Z,5.73
2018-02-27T00:35:04.598Z,4.87
2018-02-27T00:37:32.594Z,5.67
2018-02-27T00:39:59.949Z,6.23
2018-02-27T00:42:27.335Z,6.27
2018-02-27T00:44:54.700Z,6.10
2018-02-27T00:47:22.093Z,6.40
2018-02-27T00:49:49.444Z,5.60
2018-02-27T00:52:16.805Z,5.73
2018-02-27T00:54:44.192Z,5.57
2018-02-27T00:57:11.601Z,5.53
2018-02-27T00:59:39.013Z,6.60
2018-02-27T01:02:06.386Z,5.87
2018-02-27T01:04:33.788Z,5.70
2018-02-27T01:07:01.134Z,5.50
2018-02-27T01:09:28.529Z,6.30
2018-02-27T01:11:55.877Z,5.40
2018-02-27T01:14:23.277Z,5.67
2018-02-27T01:16:50.658Z,6.13
2018-02-27T01:19:18.057Z,6.30
2018-02-27T01:21:45.413Z,6.03
2018-02-27T01:24:12.785Z,6.33
2018-02-27T01:26:40.189Z,5.83
2018-02-27T01:29:07.588Z,5.53
2018-02-27T01:31:34.995Z,6.30
2018-02-27T01:34:02.384Z,6.90
2018-02-27T01:36:29.749Z,6.10
2018-02-27T01:38:57.137Z,5.50
2018-02-27T01:41:24.542Z,6.50
2018-02-27T01:43:51.899Z,6.90
2018-02-27T01:46:19.260Z,6.60
2018-02-27T01:48:46.684Z,5.97
2018-02-27T01:51:15.302Z,6.37
2018-02-27T01:53:42.689Z,6.00
2018-02-27T01:56:10.102Z,6.40
2018-02-27T01:58:37.460Z,5.57
2018-02-27T02:01:04.863Z,5.80
2018-02-27T02:03:32.225Z,5.80
2018-02-27T02:05:59.572Z,7.23
2018-02-27T02:08:26.997Z,6.30
2018-02-27T02:10:54.393Z,6.80
2018-02-27T02:13:21.778Z,6.50
2018-02-27T02:15:49.173Z,6.77
2018-02-27T02:18:16.534Z,7.30
2018-02-27T02:20:44.007Z,6.90
2018-02-27T02:23:11.424Z,6.30
2018-02-27T02:25:38.853Z,6.33
2018-02-27T02:28:06.226Z,6.50
2018-02-27T02:30:33.584Z,6.57
2018-02-27T02:33:00.976Z,6.20
2018-02-27T02:35:28.382Z,6.50
2018-02-27T02:37:55.769Z,6.50
2018-02-27T02:40:23.150Z,6.00
2018-02-27T02:42:50.568Z,6.97
2018-02-27T02:45:17.945Z,6.87
2018-02-27T02:47:45.355Z,6.47
2018-02-27T02:50:12.713Z,6.50
2018-02-27T02:52:40.161Z,6.87
2018-02-27T02:55:07.528Z,6.40
2018-02-27T02:57:34.929Z,7.03
2018-02-27T03:00:02.336Z,6.30
2018-02-27T03:02:29.759Z,7.37
2018-02-27T03:04:57.130Z,6.73
2018-02-27T03:07:24.535Z,6.20
2018-02-27T03:09:51.916Z,7.47
2018-02-27T03:12:19.319Z,6.30
2018-02-27T03:14:46.682Z,6.40
2018-02-27T03:17:14.047Z,8.00
2018-02-27T03:19:41.450Z,6.30
2018-02-27T03:22:08.801Z,7.50
2018-02-27T03:24:36.201Z,7.80
2018-02-27T03:27:03.590Z,6.13
2018-02-27T03:29:30.978Z,7.70
2018-02-27T03:31:58.374Z,6.40
2018-02-27T03:34:25.732Z,7.20
2018-02-27T03:36:53.133Z,6.57
2018-02-27T03:39:20.529Z,6.70
2018-02-27T03:41:47.949Z,8.13
2018-02-27T03:44:15.334Z,6.87
2018-02-27T03:46:42.726Z,6.67
2018-02-27T03:49:10.085Z,7.03
2018-02-27T03:51:37.568Z,7.70
2018-02-27T03:54:05.033Z,8.17
2018-02-27T03:56:32.421Z,7.07
2018-02-27T03:58:59.780Z,7.57
2018-02-27T04:01:27.132Z,6.17
2018-02-27T04:03:54.547Z,6.83
2018-02-27T04:06:21.929Z,8.67
2018-02-27T04:08:49.291Z,8.20
2018-02-27T04:11:16.706Z,9.77
2018-02-27T04:13:44.074Z,8.43
2018-02-27T04:16:11.445Z,9.17
2018-02-27T04:18:38.843Z,9.37
2018-02-27T04:21:06.217Z,9.17
2018-02-27T04:23:33.633Z,10.07
2018-02-27T04:26:01.010Z,8.73
2018-02-27T04:28:28.422Z,9.37
2018-02-27T04:30:55.782Z,9.07
2018-02-27T04:33:23.225Z,9.10
2018-02-27T04:35:50.630Z,9.20
2018-02-27T04:38:17.990Z,10.03
2018-02-27T04:40:45.356Z,9.73
2018-02-27T04:43:12.746Z,9.37
2018-02-27T04:45:40.155Z,9.00
2018-02-27T04:48:07.576Z,10.33
2018-02-27T04:50:34.944Z,8.93
2018-02-27T04:53:02.323Z,8.37
2018-02-27T04:55:29.743Z,8.53
2018-02-27T04:57:57.155Z,9.17
2018-02-27T05:00:24.533Z,9.50
2018-02-27T05:02:51.942Z,9.40
2018-02-27T05:05:19.324Z,9.90
2018-02-27T05:07:46.700Z,9.83
2018-02-27T05:10:14.081Z,9.33
2018-02-27T05:12:41.444Z,9.57
2018-02-27T05:15:08.797Z,9.90
2018-02-27T05:17:36.212Z,9.50
2018-02-27T05:20:03.579Z,9.57
2018-02-27T05:22:30.965Z,10.03
2018-02-27T05:24:58.359Z,11.40
2018-02-27T05:27:25.763Z,10.47
2018-02-27T05:29:53.123Z,10.00
2018-02-27T05:32:20.502Z,8.63
2018-02-27T05:34:48.135Z,10.50
2018-02-27T05:37:15.494Z,10.33
2018-02-27T05:39:43.086Z,10.10
2018-02-27T05:42:10.457Z,9.93
2018-02-27T05:44:37.874Z,10.27
2018-02-27T05:47:05.248Z,11.67
2018-02-27T05:49:32.694Z,11.20
2018-02-27T05:52:00.090Z,10.97
2018-02-27T05:54:27.458Z,11.17
2018-02-27T05:56:54.842Z,10.30
2018-02-27T05:59:22.205Z,11.83
2018-02-27T06:01:49.610Z,10.60
2018-02-27T06:04:16.969Z,10.60
2018-02-27T06:06:44.382Z,11.10
2018-02-27T06:09:11.782Z,10.97
2018-02-27T06:11:39.183Z,12.27
2018-02-27T06:14:07.533Z,11.10
2018-02-27T06:16:34.894Z,11.13
2018-02-27T06:19:02.292Z,10.70
2018-02-27T06:21:29.663Z,11.20
2018-02-27T06:23:57.066Z,18.03
2018-02-27T06:26:24.416Z,19.20
2018-02-27T06:28:51.798Z,13.77
2018-02-27T06:31:19.213Z,11.10
2018-02-27T06:33:46.609Z,11.93
2018-02-27T06:36:13.965Z,13.10
2018-02-27T06:38:41.358Z,13.83
2018-02-27T06:41:08.780Z,11.50
2018-02-27T06:43:36.805Z,11.20
2018-02-27T06:46:04.165Z,11.70
2018-02-27T06:48:31.582Z,10.60
2018-02-27T06:50:58.974Z,10.83
2018-02-27T06:53:26.333Z,11.27
2018-02-27T06:55:53.777Z,12.20
2018-02-27T06:58:21.136Z,13.40
2018-02-27T07:00:48.525Z,16.63
2018-02-27T07:03:15.885Z,16.40
2018-02-27T07:05:43.242Z,11.80
2018-02-27T07:08:10.640Z,8.30
2018-02-27T07:10:37.992Z,8.87
2018-02-27T07:13:05.373Z,8.03
2018-02-27T07:15:32.721Z,9.67
2018-02-27T07:18:00.090Z,8.97
2018-02-27T07:20:27.478Z,8.80
2018-02-27T07:22:54.833Z,9.10
2018-02-27T07:25:22.650Z,9.23
2018-02-27T07:27:50.042Z,9.13
2018-02-27T07:30:17.444Z,7.77
2018-02-27T07:32:44.792Z,8.37
2018-02-27T07:35:12.145Z,8.00
2018-02-27T07:37:39.529Z,8.23
2018-02-27T07:40:06.882Z,7.83
2018-02-27T07:42:34.281Z,8.10
2018-02-27T07:45:01.628Z,8.30
2018-02-27T07:47:29.004Z,7.70
2018-02-27T07:49:56.385Z,7.87
2018-02-27T07:52:23.930Z,7.87
2018-02-27T07:54:51.283Z,6.60
2018-02-27T07:57:18.646Z,7.70
2018-02-27T07:59:46.034Z,7.70
2018-02-27T08:02:13.386Z,7.67
2018-02-27T08:04:40.746Z,8.10
2018-02-27T08:07:08.130Z,7.80
2018-02-27T08:09:35.508Z,6.93
2018-02-27T08:12:02.930Z,6.73
2018-02-27T08:14:30.287Z,7.30
2018-02-27T08:16:57.645Z,7.07
2018-02-27T08:19:25.041Z,6.90
2018-02-27T08:21:52.459Z,7.03
2018-02-27T08:24:19.791Z,7.40
2018-02-27T08:26:47.192Z,6.27
2018-02-27T08:29:14.553Z,6.43
2018-02-27T08:31:41.944Z,6.53
2018-02-27T08:34:09.301Z,6.93
2018-02-27T08:36:36.693Z,7.93
2018-02-27T08:39:04.081Z,7.07
2018-02-27T08:41:31.441Z,5.50
2018-02-27T08:43:58.803Z,5.80
2018-02-27T08:46:26.206Z,6.97
2018-02-27T08:48:53.550Z,6.67
2018-02-27T08:51:20.943Z,6.47
2018-02-27T08:53:48.297Z,6.43
2018-02-27T08:56:15.692Z,7.30
2018-02-27T08:58:43.149Z,6.00
2018-02-27T09:01:10.503Z,6.23
2018-02-27T09:03:37.969Z,5.47
2018-02-27T09:06:05.403Z,6.47
2018-02-27T09:08:32.785Z,5.10
2018-02-27T09:11:00.185Z,5.23
2018-02-27T09:13:27.597Z,6.70
2018-02-27T09:15:54.978Z,5.80
2018-02-27T09:18:22.344Z,6.47
2018-02-27T09:20:49.750Z,5.63
2018-02-27T09:23:17.121Z,6.73
2018-02-27T09:25:44.473Z,6.10
2018-02-27T09:28:11.873Z,6.13
2018-02-27T09:30:39.241Z,6.27
2018-02-27T09:33:06.634Z,5.40
2018-02-27T09:35:34.082Z,5.33
2018-02-27T09:38:01.446Z,5.70
2018-02-27T09:40:28.862Z,5.30
2018-02-27T09:42:56.250Z,6.13
2018-02-27T09:45:23.611Z,6.30
2018-02-27T09:47:51.007Z,6.17
2018-02-27T09:50:18.393Z,6.63
2018-02-27T09:52:45.750Z,6.57
2018-02-27T09:55:13.149Z,5.93
2018-02-27T09:57:40.500Z,5.93
2018-02-27T10:00:07.858Z,7.03
2018-02-27T10:02:36.107Z,7.23
2018-02-27T10:05:03.533Z,6.20
2018-02-27T10:07:30.928Z,5.87
2018-02-27T10:09:58.277Z,7.43
2018-02-27T10:12:25.633Z,6.60
2018-02-27T10:14:53.177Z,5.50
2018-02-27T10:17:20.521Z,5.57
2018-02-27T10:19:47.926Z,6.60
2018-02-27T10:22:15.285Z,6.17
2018-02-27T10:24:42.662Z,6.23
2018-02-27T10:27:10.066Z,5.60
2018-02-27T10:29:37.413Z,6.20
2018-02-27T10:32:04.773Z,5.20
2018-02-27T10:34:32.153Z,4.90
2018-02-27T10:36:59.536Z,5.80
2018-02-27T10:39:26.963Z,5.80
2018-02-27T10:41:54.345Z,6.33
2018-02-27T10:44:21.725Z,6.50
2018-02-27T10:46:49.116Z,5.53
2018-02-27T10:49:16.536Z,5.10
2018-02-27T10:51:43.921Z,4.93
2018-02-27T10:54:11.279Z,5.80
2018-02-27T10:56:38.674Z,5.20
2018-02-27T10:59:06.028Z,5.73
2018-02-27T11:01:33.417Z,5.10
2018-02-27T11:04:00.823Z,5.30
2018-02-27T11:06:28.213Z,6.40
2018-02-27T11:08:55.568Z,5.70
2018-02-27T11:11:22.933Z,6.10
2018-02-27T11:13:50.338Z,5.47
2018-02-27T11:16:17.711Z,5.40
2018-02-27T11:18:45.074Z,5.70
2018-02-27T11:21:12.473Z,6.17
2018-02-27T11:23:39.838Z,5.90
2018-02-27T11:26:07.242Z,5.70
2018-02-27T11:28:34.598Z,6.30
2018-02-27T11:31:01.994Z,6.23
2018-02-27T11:33:29.378Z,6.30
2018-02-27T11:35:56.738Z,6.20
2018-02-27T11:38:24.137Z,7.20
2018-02-27T11:40:51.497Z,6.60
2018-02-27T11:43:18.851Z,6.47
2018-02-27T11:45:46.261Z,6.37
2018-02-27T11:48:13.614Z,6.53
2018-02-27T11:50:41.018Z,6.90
2018-02-27T11:53:08.489Z,6.30
2018-02-27T11:55:35.902Z,6.23
2018-02-27T11:58:03.251Z,6.60
2018-02-27T12:00:30.634Z,6.20
2018-02-27T12:02:57.993Z,6.70
2018-02-27T12:05:25.390Z,6.53
2018-02-27T12:07:52.758Z,7.00
2018-02-27T12:10:20.153Z,6.53
2018-02-27T12:12:47.533Z,6.57
2018-02-27T12:15:14.881Z,6.30
2018-02-27T12:17:42.260Z,6.07
2018-02-27T12:20:09.633Z,6.37
2018-02-27T12:22:37.066Z,6.70
2018-02-27T12:25:04.435Z,6.97
2018-02-27T12:27:31.866Z,4.67
2018-02-27T12:29:59.246Z,6.40
2018-02-27T12:32:26.593Z,5.23
2018-02-27T12:34:53.990Z,6.10
2018-02-27T12:37:21.336Z,5.63
2018-02-27T12:39:48.710Z,5.50
2018-02-27T12:42:16.112Z,5.80
2018-02-27T12:44:43.505Z,5.73
2018-02-27T12:47:11.814Z,5.07
2018-02-27T12:49:39.283Z,4.83
2018-02-27T12:52:06.673Z,4.90
2018-02-27T12:54:34.022Z,5.07
2018-02-27T12:57:01.405Z,4.57
2018-02-27T12:59:28.761Z,4.80
2018-02-27T13:01:56.159Z,4.60
2018-02-27T13:04:23.494Z,4.53
2018-02-27T13:06:50.837Z,4.97
2018-02-27T13:09:18.242Z,4.53
2018-02-27T13:11:45.588Z,5.10
2018-02-27T13:14:12.945Z,5.33
2018-02-27T13:16:40.346Z,5.10
2018-02-27T13:19:07.725Z,4.43
2018-02-27T13:21:35.129Z,5.67
2018-02-27T13:24:02.481Z,4.30
2018-02-27T13:26:29.834Z,4.80
2018-02-27T13:28:57.214Z,4.73
2018-02-27T13:31:24.553Z,4.50
2018-02-27T13:33:52.080Z,4.40
2018-02-27T13:36:19.505Z,4.27
2018-02-27T13:38:46.855Z,4.50
2018-02-27T13:41:14.206Z,4.50
2018-02-27T13:43:41.737Z,4.20
2018-02-27T13:46:09.095Z,4.47
2018-02-27T13:48:45.758Z,4.50
2018-02-27T13:51:03.846Z,4.50
2018-02-27T13:53:31.275Z,4.20
2018-02-27T13:55:58.620Z,4.70
2018-02-27T13:58:25.979Z,4.43
2018-02-27T14:00:53.358Z,5.10
2018-02-27T14:03:20.706Z,4.63
2018-02-27T14:05:48.067Z,5.17
2018-02-27T14:08:15.467Z,5.10
2018-02-27T14:10:42.825Z,5.53
2018-02-27T14:13:10.173Z,6.40
2018-02-27T14:15:37.579Z,5.47
2018-02-27T14:18:04.992Z,6.10
2018-02-27T14:20:32.342Z,5.93
2018-02-27T14:22:59.738Z,6.10
2018-02-27T14:25:27.086Z,5.03
2018-02-27T14:27:54.496Z,6.00
2018-02-27T14:30:21.887Z,5.60
2018-02-27T14:32:49.233Z,5.80
2018-02-27T14:35:16.584Z,5.07
2018-02-27T14:37:43.957Z,4.97
2018-02-27T14:40:11.312Z,5.00
2018-02-27T14:42:38.672Z,4.53
2018-02-27T14:45:06.073Z,4.87
2018-02-27T14:47:33.421Z,4.63
2018-02-27T14:50:01.097Z,4.63
2018-02-27T14:52:28.449Z,4.43
2018-02-27T14:54:55.797Z,5.83
2018-02-27T14:57:23.178Z,5.23
2018-02-27T14:59:50.564Z,4.83
2018-02-27T15:02:17.924Z,5.43
2018-02-27T15:04:45.302Z,5.60
2018-02-27T15:07:12.675Z,5.80
2018-02-27T15:09:40.105Z,5.97
2018-02-27T15:12:07.454Z,5.40
2018-02-27T15:14:34.863Z,5.70
2018-02-27T15:17:02.214Z,5.33
2018-02-27T15:19:29.577Z,5.20
2018-02-27T15:21:56.954Z,5.17
2018-02-27T15:24:24.321Z,5.80
2018-02-27T15:26:51.665Z,5.20
2018-02-27T15:29:19.049Z,6.67
2018-02-27T15:31:46.414Z,6.43
2018-02-27T15:34:13.769Z,6.73
2018-02-27T15:36:41.162Z,6.50
2018-02-27T15:39:08.511Z,6.80
2018-02-27T15:41:35.865Z,7.47
2018-02-27T15:44:03.278Z,7.13
2018-02-27T15:46:30.628Z,7.10
2018-02-27T15:48:57.986Z,7.00
2018-02-27T15:51:25.485Z,7.07
2018-02-27T15:53:52.954Z,7.43
2018-02-27T15:56:20.366Z,7.10
2018-02-27T15:58:47.779Z,7.37
2018-02-27T16:01:15.186Z,8.17
2018-02-27T16:03:42.522Z,6.97
2018-02-27T16:06:09.916Z,7.40
2018-02-27T16:08:37.256Z,7.67
2018-02-27T16:11:04.630Z,8.07
2018-02-27T16:13:32.039Z,7.50
2018-02-27T16:15:59.429Z,7.73
2018-02-27T16:18:26.782Z,8.93
2018-02-27T16:20:54.206Z,8.87
2018-02-27T16:23:21.672Z,7.80
2018-02-27T16:25:49.065Z,9.73
2018-02-27T16:28:16.417Z,9.00
2018-02-27T16:30:43.809Z,8.70
2018-02-27T16:33:11.173Z,9.43
2018-02-27T16:35:38.522Z,9.20
2018-02-27T16:38:05.897Z,8.53
2018-02-27T16:40:33.286Z,10.50
2018-02-27T16:43:00.674Z,9.90
2018-02-27T16:45:28.036Z,10.10
2018-02-27T16:47:55.434Z,9.73
2018-02-27T16:50:22.834Z,9.63
2018-02-27T16:52:50.192Z,9.20
2018-02-27T16:55:17.542Z,9.67
2018-02-27T16:57:44.950Z,10.20
2018-02-27T17:00:12.308Z,9.40
2018-02-27T17:02:39.688Z,11.43
2018-02-27T17:05:07.086Z,11.57
2018-02-27T17:07:34.464Z,11.10
2018-02-27T17:10:01.846Z,12.10
2018-02-27T17:12:29.253Z,11.87
2018-02-27T17:14:56.618Z,13.00
2018-02-27T17:17:24.294Z,10.83
2018-02-27T17:19:51.713Z,12.47
2018-02-27T17:22:19.131Z,12.90
2018-02-27T17:24:47.552Z,12.30
2018-02-27T17:27:15.070Z,12.70
2018-02-27T17:29:42.499Z,12.33
2018-02-27T17:32:09.930Z,13.43
2018-02-27T17:34:37.289Z,13.10
2018-02-27T17:37:04.649Z,12.40
2018-02-27T17:39:32.121Z,11.70
2018-02-27T17:41:59.481Z,13.30
2018-02-27T17:44:26.893Z,13.43
2018-02-27T17:46:54.288Z,12.40
2018-02-27T17:49:21.698Z,13.80
2018-02-27T17:51:49.089Z,12.80
2018-02-27T17:54:16.445Z,12.60
2018-02-27T17:56:43.853Z,12.97
2018-02-27T17:59:11.271Z,12.37
2018-02-27T18:01:38.653Z,13.17
2018-02-27T18:04:06.022Z,13.07
2018-02-27T18:06:33.433Z,12.10
2018-02-27T18:09:00.824Z,12.77
2018-02-27T18:11:28.403Z,12.90
2018-02-27T18:13:55.950Z,13.80
2018-02-27T18:16:23.391Z,11.07
2018-02-27T18:18:51.285Z,12.30
2018-02-27T18:21:18.763Z,12.93
2018-02-27T18:23:46.128Z,12.10
2018-02-27T18:26:13.497Z,13.07
2018-02-27T18:28:40.903Z,12.30
2018-02-27T18:31:08.270Z,12.27
2018-02-27T18:33:35.637Z,11.67
2018-02-27T18:36:03.064Z,10.53
2018-02-27T18:38:30.449Z,11.37
2018-02-27T18:40:58.069Z,11.60
2018-02-27T18:43:25.554Z,13.17
2018-02-27T18:45:52.985Z,10.60
2018-02-27T18:48:20.366Z,12.30
2018-02-27T18:50:47.738Z,11.87
2018-02-27T18:53:15.135Z,11.20
2018-02-27T18:55:42.512Z,11.77
2018-02-27T18:58:09.874Z,12.07
2018-02-27T19:00:37.301Z,11.40
2018-02-27T19:03:04.785Z,11.67
2018-02-27T19:05:32.219Z,11.73
2018-02-27T19:07:59.600Z,13.20
2018-02-27T19:10:26.953Z,12.20
2018-02-27T19:12:54.368Z,12.43
2018-02-27T19:15:21.750Z,12.30
2018-02-27T19:17:49.180Z,13.20
2018-02-27T19:20:16.649Z,12.77
2018-02-27T19:22:44.034Z,12.50
2018-02-27T19:25:11.448Z,12.00
2018-02-27T19:27:38.836Z,10.87
2018-02-27T19:30:06.193Z,13.27
2018-02-27T19:32:33.552Z,12.67
2018-02-27T19:35:00.969Z,13.17
2018-02-27T19:37:28.367Z,12.67
2018-02-27T19:39:55.735Z,11.80
2018-02-27T19:42:23.153Z,11.37
2018-02-27T19:44:50.633Z,11.60
2018-02-27T19:47:17.985Z,11.53
2018-02-27T19:49:46.033Z,12.43
2018-02-27T19:52:13.453Z,12.13
2018-02-27T19:54:40.882Z,13.63
2018-02-27T19:57:08.285Z,12.20
2018-02-27T19:59:35.645Z,14.20
2018-02-27T20:02:03.061Z,13.33
2018-02-27T20:04:30.581Z,13.77
2018-02-27T20:06:58.066Z,12.90
2018-02-27T20:09:25.601Z,13.30
2018-02-27T20:11:53.007Z,13.40
2018-02-27T20:14:26.141Z,12.60
2018-02-27T20:16:53.529Z,14.60
2018-02-27T20:19:21.060Z,13.00
2018-02-27T20:21:48.486Z,13.30
2018-02-27T20:24:18.657Z,13.40
2018-02-27T20:26:46.041Z,14.03
2018-02-27T20:29:19.303Z,15.50
2018-02-27T20:31:46.738Z,14.00
2018-02-27T20:34:14.107Z,12.30
2018-02-27T20:36:41.490Z,11.70
2018-02-27T20:39:14.651Z,13.00
2018-02-27T20:41:42.025Z,12.33
2018-02-27T20:44:09.432Z,11.97
2018-02-27T20:46:36.833Z,12.23
2018-02-27T20:49:04.259Z,11.40
2018-02-27T20:51:31.790Z,10.97
2018-02-27T20:53:59.209Z,9.87
2018-02-27T20:56:26.674Z,9.17
2018-02-27T20:58:54.153Z,9.90
2018-02-27T21:01:21.507Z,8.83
2018-02-27T21:03:49.076Z,9.63
2018-02-27T21:06:16.453Z,9.37
2018-02-27T21:08:43.841Z,9.30
2018-02-27T21:11:11.202Z,9.33
2018-02-27T21:13:38.770Z,8.50
2018-02-27T21:16:06.129Z,8.53
2018-02-27T21:18:33.516Z,10.30
2018-02-27T21:21:05.884Z,9.80
2018-02-27T21:23:33.300Z,9.87
2018-02-27T21:26:00.722Z,10.10
2018-02-27T21:28:28.113Z,9.17
2018-02-27T21:30:55.565Z,9.67
2018-02-27T21:33:24.225Z,9.97
2018-02-27T21:35:51.605Z,9.77
2018-02-27T21:38:22.648Z,9.13
2018-02-27T21:40:50.180Z,10.70
2018-02-27T21:43:17.546Z,10.20
2018-02-27T21:45:44.898Z,9.57
2018-02-27T21:48:12.317Z,9.87
2018-02-27T21:50:39.684Z,9.60
2018-02-27T21:53:07.263Z,9.97
2018-02-27T21:55:34.669Z,9.93
2018-02-27T21:58:02.388Z,9.90
2018-02-27T22:00:29.764Z,8.73
2018-02-27T22:02:57.423Z,9.60
2018-02-27T22:05:24.840Z,9.93
2018-02-27T22:07:52.233Z,9.93
2018-02-27T22:10:19.625Z,9.63
2018-02-27T22:12:46.989Z,9.67
2018-02-27T22:15:14.367Z,9.57
2018-02-27T22:17:42.657Z,9.73
2018-02-27T22:20:10.015Z,10.10
2018-02-27T22:22:37.364Z,10.23
2018-02-27T22:25:04.797Z,9.60
2018-02-27T22:27:32.166Z,10.23
2018-02-27T22:29:59.544Z,10.40
2018-02-27T22:32:27.064Z,10.77
2018-02-27T22:34:54.458Z,11.13
2018-02-27T22:37:21.833Z,10.90
2018-02-27T22:39:49.287Z,10.97
2018-02-27T22:42:16.654Z,11.00
2018-02-27T22:44:44.033Z,10.97
2018-02-27T22:47:11.538Z,10.90
2018-02-27T22:49:38.958Z,10.90
2018-02-27T22:52:06.379Z,11.27
2018-02-27T22:54:33.759Z,10.40
2018-02-27T22:57:01.126Z,10.37
2018-02-27T22:59:28.541Z,11.70
2018-02-27T23:01:55.990Z,10.70
2018-02-27T23:04:23.381Z,11.60
2018-02-27T23:06:50.941Z,11.30
2018-02-27T23:09:18.430Z,10.87
2018-02-27T23:11:45.785Z,11.13
2018-02-27T23:14:13.188Z,11.87
2018-02-27T23:16:40.568Z,12.20
2018-02-27T23:19:07.965Z,11.90
2018-02-27T23:21:35.395Z,11.60
2018-02-27T23:24:08.011Z,12.40
2018-02-27T23:26:35.895Z,11.60
2018-02-27T23:29:06.325Z,13.13
2018-02-27T23:31:35.135Z,12.60
2018-02-27T23:34:04.073Z,11.60
2018-02-27T23:36:31.501Z,10.40
2018-02-27T23:38:58.901Z,11.10
2018-02-27T23:41:26.321Z,11.20
2018-02-27T23:43:53.693Z,11.30
2018-02-27T23:46:21.058Z,10.90
2018-02-27T23:48:48.602Z,11.73
2018-02-27T23:51:15.974Z,12.07
2018-02-27T23:53:43.578Z,11.57
2018-02-27T23:56:11.382Z,10.80
2018-02-27T23:58:38.779Z,12.13
